createdAt,value
2022-12-19T00:02:56.630Z,33.08
2022-12-19T00:07:58.591Z,32.20
2022-12-19T00:13:02.230Z,32.45
2022-12-19T00:18:04.027Z,32.88
2022-12-19T00:23:05.683Z,31.75
2022-12-19T00:28:07.349Z,34.08
2022-12-19T00:33:08.998Z,34.30
2022-12-19T00:38:10.683Z,32.88
2022-12-19T00:43:12.336Z,34.13
2022-12-19T00:48:14.026Z,34.17
2022-12-19T00:53:18.868Z,34.65
2022-12-19T00:58:20.573Z,33.67
2022-12-19T01:03:22.233Z,33.15
2022-12-19T01:08:24.117Z,34.10
2022-12-19T01:13:29.984Z,36.80
2022-12-19T01:18:32.267Z,34.08
2022-12-19T01:23:34.483Z,35.17
2022-12-19T01:28:36.226Z,35.67
2022-12-19T01:33:37.954Z,35.70
2022-12-19T01:38:40.410Z,35.70
2022-12-19T01:44:00.765Z,40.25
2022-12-19T01:49:03.647Z,34.42
2022-12-19T01:54:10.932Z,34.42
2022-12-19T01:59:20.017Z,36.38
2022-12-19T02:04:23.643Z,36.35
2022-12-19T02:09:25.586Z,35.42
2022-12-19T02:14:27.620Z,33.25
2022-12-19T02:19:50.833Z,38.00
2022-12-19T02:25:00.143Z,37.97
2022-12-19T02:30:10.632Z,37.88
2022-12-19T02:35:25.877Z,39.43
2022-12-19T02:40:33.774Z,36.00
2022-12-19T02:45:40.047Z,37.33
2022-12-19T02:50:48.418Z,35.00
2022-12-19T02:56:00.877Z,35.75
2022-12-19T03:01:13.342Z,38.10
2022-12-19T03:06:38.811Z,36.35
2022-12-19T03:11:43.119Z,35.53
2022-12-19T03:16:45.041Z,34.67
2022-12-19T03:21:49.630Z,32.72
2022-12-19T03:27:03.343Z,34.80
2022-12-19T03:32:09.309Z,33.83
2022-12-19T03:37:16.377Z,36.25
2022-12-19T03:42:39.374Z,32.83
2022-12-19T03:47:47.838Z,33.83
2022-12-19T03:53:02.467Z,35.38
2022-12-19T03:58:12.411Z,34.00
2022-12-19T04:03:18.487Z,34.40
2022-12-19T04:08:21.378Z,36.45
2022-12-19T04:13:36.858Z,35.55
2022-12-19T04:18:42.207Z,35.55
2022-12-19T04:23:53.281Z,36.72
2022-12-19T04:28:59.040Z,33.75
2022-12-19T04:34:00.799Z,35.25
2022-12-19T04:39:03.063Z,35.13
2022-12-19T04:44:04.957Z,36.53
2022-12-19T04:49:06.645Z,37.05
2022-12-19T04:54:08.280Z,36.35
2022-12-19T04:59:10.118Z,36.38
2022-12-19T05:04:11.872Z,56.88
2022-12-19T05:09:13.532Z,42.38
2022-12-19T05:14:15.778Z,37.22
2022-12-19T05:25:39.862Z,45.03
2022-12-19T05:30:42.464Z,43.45
2022-12-19T05:35:44.125Z,45.15
2022-12-19T05:40:45.885Z,44.35
2022-12-19T05:45:47.642Z,44.78
2022-12-19T05:51:11.076Z,48.05
2022-12-19T05:56:18.357Z,46.25
2022-12-19T06:01:23.037Z,46.75
2022-12-19T06:06:26.974Z,52.90
2022-12-19T06:11:28.775Z,53.17
2022-12-19T06:16:30.542Z,51.08
2022-12-19T06:21:32.599Z,49.47
2022-12-19T06:26:34.330Z,52.05
2022-12-19T06:31:36.073Z,43.15
2022-12-19T06:36:38.432Z,50.28
2022-12-19T06:41:59.636Z,37.33
2022-12-19T06:47:02.143Z,43.20
2022-12-19T06:52:09.003Z,38.83
2022-12-19T06:57:12.895Z,37.42
2022-12-19T07:02:14.635Z,46.17
2022-12-19T07:07:16.764Z,38.28
2022-12-19T07:12:18.572Z,36.35
2022-12-19T07:17:21.598Z,37.38
2022-12-19T07:22:26.429Z,37.92
2022-12-19T07:27:35.274Z,40.50
2022-12-19T07:32:37.459Z,38.47
2022-12-19T07:37:39.264Z,39.20
2022-12-19T07:42:40.949Z,38.47
2022-12-19T07:47:42.586Z,38.28
2022-12-19T07:52:44.994Z,40.05
2022-12-19T07:57:47.241Z,39.53
2022-12-19T08:02:49.551Z,41.58
2022-12-19T08:07:52.618Z,39.85
2022-12-19T08:12:54.282Z,44.08
2022-12-19T08:17:59.419Z,47.85
2022-12-19T08:23:02.202Z,45.97
2022-12-19T08:28:04.512Z,42.58
2022-12-19T08:33:07.360Z,47.10
2022-12-19T08:38:12.736Z,43.53
2022-12-19T08:43:15.506Z,46.03
2022-12-19T08:48:18.045Z,42.78
2022-12-19T08:53:25.967Z,46.05
2022-12-19T08:58:36.291Z,50.50
2022-12-19T09:04:05.573Z,48.55
2022-12-19T09:09:04.960Z,42.53
2022-12-19T09:14:11.062Z,48.10
2022-12-19T09:19:15.948Z,45.13
2022-12-19T09:24:18.657Z,42.40
2022-12-19T09:29:21.927Z,45.97
2022-12-19T09:34:37.949Z,46.08
2022-12-19T09:39:52.341Z,48.78
2022-12-19T09:45:34.802Z,46.88
2022-12-19T09:51:09.996Z,45.17
2022-12-19T09:56:16.927Z,48.08
2022-12-19T10:01:33.457Z,46.60
2022-12-19T10:07:22.189Z,43.90
2022-12-19T10:12:46.214Z,52.55
2022-12-19T10:18:44.552Z,52.08
2022-12-19T10:24:00.533Z,50.80
2022-12-19T10:29:36.865Z,62.33
2022-12-19T10:34:44.052Z,56.00
2022-12-19T10:40:13.604Z,62.03
2022-12-19T10:45:28.561Z,55.08
2022-12-19T10:50:30.830Z,49.60
2022-12-19T10:55:51.029Z,75.18
2022-12-19T11:01:33.707Z,68.78
2022-12-19T11:06:35.382Z,46.58
2022-12-19T11:15:24.814Z,43.47
2022-12-19T11:22:39.130Z,44.63
2022-12-19T11:30:08.652Z,47.75
2022-12-19T11:30:46.599Z,52.50
2022-12-19T11:38:39.951Z,47.15
2022-12-19T11:43:53.455Z,50.00
2022-12-19T11:49:32.224Z,54.55
2022-12-19T11:54:44.302Z,67.65
2022-12-19T11:59:46.943Z,49.92
2022-12-19T12:05:07.031Z,54.10
2022-12-19T12:13:47.732Z,48.03
2022-12-19T12:25:20.051Z,51.05
2022-12-19T12:31:12.647Z,52.92
2022-12-19T12:32:03.364Z,52.33
2022-12-19T12:35:32.828Z,51.83
2022-12-19T12:38:44.116Z,52.53
2022-12-19T12:43:57.820Z,47.20
2022-12-19T12:49:06.268Z,47.13
2022-12-19T12:54:14.737Z,47.80
2022-12-19T12:59:21.319Z,55.03
2022-12-19T13:04:42.415Z,48.63
2022-12-19T13:09:44.274Z,46.72
2022-12-19T13:14:47.474Z,50.97
2022-12-19T13:19:55.688Z,46.67
2022-12-19T13:24:59.514Z,42.63
2022-12-19T13:30:01.383Z,48.13
2022-12-19T13:35:52.134Z,46.85
2022-12-19T13:40:36.163Z,42.38
2022-12-19T13:45:41.501Z,43.67
2022-12-19T13:50:48.970Z,47.17
2022-12-19T13:55:56.309Z,42.17
2022-12-19T14:01:04.615Z,46.67
2022-12-19T14:06:19.690Z,46.60
2022-12-19T14:11:46.079Z,47.80
2022-12-19T14:16:46.085Z,51.53
2022-12-19T14:22:06.933Z,50.92
2022-12-19T14:33:40.632Z,48.88
2022-12-19T14:39:21.052Z,50.30
2022-12-19T14:43:59.738Z,49.58
2022-12-19T14:54:11.024Z,56.75
2022-12-19T14:59:47.860Z,57.63
2022-12-19T15:05:02.405Z,60.95
2022-12-19T15:11:03.004Z,73.75
2022-12-19T15:20:40.794Z,67.50
2022-12-19T15:26:03.265Z,57.90
2022-12-19T15:36:11.262Z,61.28
2022-12-19T15:41:17.457Z,48.10
2022-12-19T15:46:19.255Z,45.33
2022-12-19T15:51:20.953Z,52.10
2022-12-19T15:56:29.537Z,55.95
2022-12-19T16:01:34.299Z,124.13
2022-12-19T16:06:36.034Z,67.07
2022-12-19T16:11:37.870Z,58.72
2022-12-19T16:16:39.997Z,58.72
2022-12-19T16:21:41.708Z,66.43
2022-12-19T16:26:43.688Z,66.40
2022-12-19T16:31:45.317Z,67.85
2022-12-19T16:36:47.634Z,68.78
2022-12-19T16:41:49.520Z,65.32
2022-12-19T16:46:52.184Z,61.38
2022-12-19T16:51:53.833Z,74.03
2022-12-19T16:56:55.592Z,51.03
2022-12-19T17:01:58.427Z,58.17
2022-12-19T17:07:00.185Z,59.15
2022-12-19T17:12:02.377Z,76.88
2022-12-19T17:17:04.071Z,50.75
2022-12-19T17:22:14.302Z,61.95
2022-12-19T17:27:17.545Z,57.70
2022-12-19T17:32:24.010Z,68.97
2022-12-19T17:37:26.020Z,66.63
2022-12-19T17:42:32.050Z,60.88
2022-12-19T17:47:37.046Z,64.18
2022-12-19T17:52:38.725Z,56.17
2022-12-19T17:57:40.482Z,76.63
2022-12-19T18:02:42.443Z,106.70
2022-12-19T18:07:44.214Z,94.55
2022-12-19T18:12:45.922Z,60.60
2022-12-19T18:17:49.229Z,88.28
2022-12-19T18:22:50.912Z,78.57
2022-12-19T18:27:53.320Z,57.58
2022-12-19T18:33:00.430Z,51.00
2022-12-19T18:38:05.504Z,54.60
2022-12-19T18:43:07.267Z,54.63
2022-12-19T18:48:33.272Z,49.42
2022-12-19T18:53:36.309Z,79.80
2022-12-19T18:58:38.731Z,89.82
2022-12-19T19:03:43.903Z,70.13
2022-12-19T19:08:45.660Z,58.10
2022-12-19T19:13:47.294Z,63.95
2022-12-19T19:18:56.880Z,56.85
2022-12-19T19:24:12.292Z,58.00
2022-12-19T19:29:15.007Z,56.40
2022-12-19T19:34:29.804Z,50.92
2022-12-19T19:39:33.668Z,53.40
2022-12-19T19:44:35.457Z,73.32
2022-12-19T19:49:37.141Z,72.32
2022-12-19T19:54:38.725Z,57.08
2022-12-19T19:59:40.772Z,56.03
2022-12-19T20:04:42.531Z,67.68
2022-12-19T20:09:44.390Z,51.97
2022-12-19T20:14:47.030Z,55.15
2022-12-19T20:19:48.711Z,56.38
2022-12-19T20:24:50.342Z,49.78
2022-12-19T20:29:51.959Z,44.20
2022-12-19T20:34:53.615Z,45.67
2022-12-19T20:39:55.236Z,48.42
2022-12-19T20:44:56.896Z,46.25
2022-12-19T20:49:58.613Z,52.72
2022-12-19T20:55:00.254Z,51.97
2022-12-19T21:00:04.842Z,43.67
2022-12-19T21:05:07.149Z,54.67
2022-12-19T21:10:09.584Z,48.40
2022-12-19T21:15:11.372Z,53.33
2022-12-19T21:20:14.969Z,44.97
2022-12-19T21:25:17.060Z,58.30
2022-12-19T21:30:19.186Z,54.85
2022-12-19T21:35:20.888Z,45.63
2022-12-19T21:40:22.661Z,43.63
2022-12-19T21:45:24.254Z,44.63
2022-12-19T21:50:26.095Z,46.30
2022-12-19T21:55:27.993Z,48.30
2022-12-19T22:00:29.635Z,43.63
2022-12-19T22:05:31.293Z,49.92
2022-12-19T22:10:32.921Z,48.13
2022-12-19T22:15:36.528Z,43.80
2022-12-19T22:20:42.656Z,51.67
2022-12-19T22:25:44.738Z,52.58
2022-12-19T22:30:47.069Z,57.28
2022-12-19T22:35:48.678Z,56.58
2022-12-19T22:40:50.349Z,49.25
2022-12-19T22:45:52.037Z,52.58
2022-12-19T22:50:53.739Z,51.25
2022-12-19T22:55:55.342Z,48.60
2022-12-19T23:00:57.818Z,70.75
2022-12-19T23:06:01.411Z,55.55
2022-12-19T23:11:04.115Z,64.97
2022-12-19T23:16:05.830Z,56.60
2022-12-19T23:21:09.831Z,70.72
2022-12-19T23:26:15.917Z,56.72
2022-12-19T23:31:18.450Z,50.35
2022-12-19T23:36:38.121Z,48.42
2022-12-19T23:41:42.475Z,57.30
2022-12-19T23:46:44.283Z,49.08
2022-12-19T23:51:45.873Z,46.97
2022-12-19T23:56:48.808Z,45.95
